Latest Coastal Weather Observations for Kiama

IDN60701

Issued at 7:32 am EDT Tuesday 27 January 2015 (issued every 10 minutes, with the page automatically refreshed every 10 minutes)

About coastal observations | Map of coastal stations | Coastal observations for NSW | Marine services | Other Formats
Station Details ID: 068242 Name: KIAMA (BOMBO HEADLAND) Lat: -34.65 Lon: 150.86 Height: 15.5 m
Data from the previous 72 hours. | See also: Recent months at Kiama
Date/Time
EDT
Temp

°C
Wind Pressure Rain
since 9am
mm
Weather Cloud Vis
km
Sea
Height
m
Swell
Dir
 
Speed
knots
Gust
knots
hPa Trend Height
m
Period
s
Dir
27/07:30am 18.0 S 12 17 - - 20.8 - - - - - - -
27/07:00am 18.2 SSE 17 22 - - 19.0 - - - - - - -
27/06:30am 17.6 SSW 15 21 - - 16.8 - - - - - - -
27/06:00am 17.5 S 10 13 - - 15.6 Rain - - - - - -
27/05:30am 17.5 SSW 12 14 - - 12.4 - - - - - - -
27/05:00am 17.5 SW 7 10 - - 6.4 - - - - - - -
27/04:30am 17.6 WSW 5 6 - - 4.2 - - - - - - -
27/04:00am 18.3 SSW 11 14 - - 3.6 - - - - - - -
27/03:30am 18.2 SW 8 11 - - 3.6 - - - - - - -
27/03:00am 17.7 SW 6 9 - - 3.6 - - - - - - -
27/02:30am 17.4 WSW 8 12 - - 3.6 - - - - - - -
27/02:00am 17.7 SSW 10 13 - - 3.6 - - - - - - -
27/01:30am 17.6 SSW 9 12 - - 3.4 - - - - - - -
27/01:00am 17.6 SW 5 8 - - 3.0 - - - - - - -
27/12:30am 17.5 SW 6 9 - - 2.6 - - - - - - -
 
Date/Time
EDT
Temp

°C
Wind Pressure Rain
since 9am
mm
Weather Cloud Vis
km
Sea
Height
m
Swell
Dir
 
Speed
knots
Gust
knots
hPa Trend Height
m
Period
s
Dir
26/11:30pm 17.8 SSW 10 14 - - 1.0 - - - - - - -
26/11:00pm 17.7 SSW 8 11 - - 0.8 - - - - - - -
26/10:30pm 17.4 SSW 10 13 - - 0.8 - - - - - - -
26/10:00pm 17.3 SSW 9 12 - - 0.6 - - - - - - -
26/09:30pm 17.1 SSW 10 13 - - 0.2 - - - - - - -
26/09:00pm 17.4 SSW 11 13 - - 0.0 - - - - - - -
26/08:30pm 17.4 SSW 10 12 - - 0.0 - - - - - - -
26/08:00pm 17.9 SSW 11 15 - - 0.0 - - - - - - -
26/07:30pm 18.0 SSW 12 15 - - 0.0 - - - - - - -
26/07:00pm 18.4 SSW 10 13 - - 0.0 - - - - - - -
26/06:30pm 18.0 SSW 10 15 - - 0.0 - - - - - - -
26/06:00pm 18.2 SSW 11 15 - - 0.0 - - - - - - -
26/05:30pm 18.7 SSW 10 13 - - 0.0 - - - - - - -
26/05:00pm 18.6 SSW 12 15 - - 0.0 - - - - - - -
26/04:30pm 18.6 SSW 13 17 - - 0.0 - - - - - - -
26/04:00pm 18.9 SSW 13 18 - - 0.0 - - - - - - -
26/03:30pm 18.9 SSW 12 16 - - 0.0 - - - - - - -
26/03:00pm 18.9 SSW 14 19 - - 0.0 - - - - - - -
26/02:30pm 19.0 SSW 14 18 - - 0.0 - - - - - - -
26/02:00pm 19.2 SSW 12 16 - - 0.0 - - - - - - -
26/01:30pm 18.7 SSW 12 15 - - 0.0 - - - - - - -
26/01:00pm 19.0 SSW 14 21 - - 0.0 - - - - - - -
26/12:30pm 19.4 SSW 14 19 - - 0.0 - - - - - - -
26/12:00pm 19.7 SSW 13 17 - - 0.0 - - - - - - -
26/11:30am 19.6 SSW 10 15 - - 0.0 - - - - - - -
26/11:00am 19.6 SSW 13 15 - - 0.0 - - - - - - -
26/10:30am 19.2 SSW 13 17 - - 0.0 - - - - - - -
26/10:00am 19.0 SSW 13 17 - - 0.0 - - - - - - -
26/09:30am 19.2 SSW 13 19 - - 0.0 - - - - - - -
26/09:00am 19.3 SSW 12 15 - - 0.6 - - - - - - -
26/08:30am 19.1 SSW 13 20 - - 0.6 - - - - - - -
26/08:00am 19.0 SSW 14 18 - - 0.6 - - - - - - -
26/07:30am 18.9 SSW 12 16 - - 0.6 - - - - - - -
26/07:00am 18.7 SSW 14 18 - - 0.6 - - - - - - -
26/06:30am 19.0 SSW 12 16 - - 0.6 - - - - - - -
26/06:00am 18.9 SSW 10 15 - - 0.6 - - - - - - -
26/05:30am 18.7 SSW 11 14 - - 0.6 - - - - - - -
26/05:00am 18.7 SSW 11 15 - - 0.6 - - - - - - -
26/04:30am 18.8 SSW 9 12 - - 0.6 - - - - - - -
26/04:00am 18.6 SSW 10 12 - - 0.6 - - - - - - -
26/03:30am 18.4 SSW 10 13 - - 0.4 - - - - - - -
26/03:00am 18.8 S 11 14 - - 0.4 Recent precip. - - - - - -
26/02:30am 19.1 SSW 11 13 - - 0.4 - - - - - - -
26/02:00am 18.9 SSW 12 16 - - 0.2 - - - - - - -
26/01:30am 19.3 SSW 11 14 - - 0.2 - - - - - - -
26/01:00am 19.3 SSW 11 14 - - 0.2 - - - - - - -
26/12:30am 19.4 SSW 13 18 - - 0.2 - - - - - - -
26/12:00am 20.1 SSW 13 17 - - 0.2 - - - - - - -
 
Date/Time
EDT
Temp

°C
Wind Pressure Rain
since 9am
mm
Weather Cloud Vis
km
Sea
Height
m
Swell
Dir
 
Speed
knots
Gust
knots
hPa Trend Height
m
Period
s
Dir
25/11:30pm 20.2 SSW 11 17 - - 0.2 - - - - - - -
25/11:00pm 20.1 SSW 14 19 - - 0.2 - - - - - - -
25/10:30pm 20.4 SSW 15 20 - - 0.2 - - - - - - -
25/10:00pm 20.7 S 17 21 - - 0.2 - - - - - - -
25/09:30pm 21.0 S 18 24 - - 0.2 - - - - - - -
25/09:00pm 21.2 S 20 26 - - 0.2 - - - - - - -
25/08:30pm 21.5 S 16 22 - - 0.2 - - - - - - -
25/08:00pm 21.8 S 23 30 - - 0.2 - - - - - - -
25/07:30pm 22.0 S 25 33 - - 0.2 - - - - - - -
25/07:08pm 22.2 S 24 34 - - 0.2 - - - - - - -
25/07:00pm 22.3 S 23 29 - - 0.2 - - - - - - -
25/06:30pm 22.6 S 24 37 - - 0.2 - - - - - - -
25/06:08pm 23.0 S 29 39 - - 0.2 - - - - - - -
25/06:00pm 23.2 S 32 39 - - 0.2 - - - - - - -
25/05:30pm 23.9 S 32 40 - - 0.2 - - - - - - -
25/05:11pm 25.9 SSW 22 40 - - 0.2 - - - - - - -
25/05:09pm 26.9 SSW 16 40 - - 0.2 - - - - - - -
25/05:06pm 30.1 SSW 9 28 - - 0.2 - - - - - - -
25/05:00pm 31.5 S 3 7 - - 0.2 - - - - - - -
25/04:30pm 29.2 NE 2 4 - - 0.2 - - - - - - -
25/04:00pm 27.6 NE 5 9 - - 0.2 - - - - - - -
25/03:30pm 27.9 NNE 6 8 - - 0.2 - - - - - - -
25/03:00pm 26.6 NNE 5 7 - - 0.2 - - - - - - -
25/02:30pm 27.1 NE 4 7 - - 0.2 - - - - - - -
25/02:00pm 27.3 NNE 7 10 - - 0.2 - - - - - - -
25/01:30pm 28.1 NNE 7 11 - - 0.2 - - - - - - -
25/01:00pm 28.3 NNE 6 10 - - 0.2 - - - - - - -
25/12:30pm 27.6 NNE 6 9 - - 0.2 - - - - - - -
25/12:00pm 27.6 NNE 5 7 - - 0.2 - - - - - - -
25/11:30am 26.3 NNE 6 9 - - 0.2 - - - - - - -
25/11:00am 27.0 NNE 4 7 - - 0.2 - - - - - - -
25/10:30am 26.1 NNE 3 4 - - 0.2 - - - - - - -
25/10:00am 25.0 NE 2 4 - - 0.2 - - - - - - -
25/09:30am 25.0 NE 3 5 - - 0.2 - - - - - - -
25/09:00am 23.7 NE 3 5 - - 0.0 - - - - - - -
25/08:30am 23.9 ENE 3 4 - - 0.0 - - - - - - -
25/08:00am 23.0 NE 1 4 - - 0.0 - - - - - - -
25/07:30am 22.6 CALM 0 0 - - 0.0 - - - - - - -
25/07:00am 21.4 CALM 0 1 - - 0.0 - - - - - - -
25/06:30am 20.7 CALM 0 2 - - 0.0 - - - - - - -
25/06:00am 20.7 CALM 0 0 - - 0.0 - - - - - - -
25/05:30am 20.8 CALM 0 0 - - 0.0 - - - - - - -
25/05:00am 21.2 CALM 0 0 - - 0.0 - - - - - - -
25/04:30am 21.5 SSE 1 2 - - 0.0 - - - - - - -
25/04:00am 21.9 N 2 4 - - 0.0 - - - - - - -
25/03:30am 21.7 NNW 5 7 - - 0.0 - - - - - - -
25/03:00am 21.4 NW 7 9 - - 0.0 - - - - - - -
25/02:30am 21.4 NNW 4 6 - - 0.0 - - - - - - -
25/02:00am 22.1 NNW 4 7 - - 0.0 - - - - - - -
25/01:30am 22.3 NW 4 6 - - 0.0 - - - - - - -
25/01:00am 21.9 N 3 6 - - 0.0 - - - - - - -
25/12:30am 22.2 NW 3 6 - - 0.0 - - - - - - -
25/12:00am 22.4 NNW 5 7 - - 0.0 - - - - - - -
 
Date/Time
EDT
Temp

°C
Wind Pressure Rain
since 9am
mm
Weather Cloud Vis
km
Sea
Height
m
Swell
Dir
 
Speed
knots
Gust
knots
hPa Trend Height
m
Period
s
Dir
24/11:30pm 22.8 NW 3 5 - - 0.0 - - - - - - -
24/11:00pm 22.6 N 3 7 - - 0.0 - - - - - - -
24/10:30pm 23.3 CALM 0 3 - - 0.0 - - - - - - -
24/10:00pm 23.3 CALM 0 0 - - 0.0 - - - - - - -
24/09:30pm 23.6 CALM 0 0 - - 0.0 - - - - - - -
24/09:00pm 23.8 N 2 4 - - 0.0 - - - - - - -
24/08:30pm 24.0 NNW 3 5 - - 0.0 - - - - - - -
24/08:00pm 23.8 N 10 13 - - 0.0 - - - - - - -
24/07:30pm 23.6 N 8 10 - - 0.0 - - - - - - -
24/07:00pm 23.9 N 6 10 - - 0.0 - - - - - - -
24/06:30pm 23.8 N 6 9 - - 0.0 - - - - - - -
24/06:00pm 23.8 N 7 9 - - 0.0 - - - - - - -
24/05:30pm 23.6 N 9 12 - - 0.0 - - - - - - -
24/05:00pm 24.0 N 11 16 - - 0.0 - - - - - - -
24/04:30pm 24.3 N 11 14 - - 0.0 - - - - - - -
24/04:00pm 25.3 NNE 9 14 - - 0.0 - - - - - - -
24/03:30pm 25.4 NNE 12 17 - - 0.0 - - - - - - -
24/03:00pm 25.7 NNE 11 17 - - 0.0 - - - - - - -
24/02:30pm 25.3 NNE 10 15 - - 0.0 - - - - - - -
24/02:00pm 25.6 NNE 10 15 - - 0.0 - - - - - - -
24/01:30pm 26.0 NNE 8 12 - - 0.0 - - - - - - -
24/01:00pm 25.5 NNE 9 13 - - 0.0 - - - - - - -
24/12:30pm 25.7 NNE 9 13 - - 0.0 - - - - - - -
24/12:00pm 25.1 NNE 11 15 - - 0.0 - - - - - - -
24/11:30am 25.3 NNE 9 12 - - 0.0 - - - - - - -
24/11:00am 24.9 NNE 7 9 - - 0.0 - - - - - - -
24/10:30am 24.2 NE 6 8 - - 0.0 - - - - - - -
24/10:00am 23.9 ENE 2 4 - - 0.0 - - - - - - -
24/09:30am 22.9 CALM 0 0 - - 0.0 - - - - - - -
24/09:00am 22.4 CALM 0 0 - - 0.0 - - - - - - -
24/08:30am 21.8 CALM 0 2 - - 0.0 - - - - - - -
24/08:00am 21.7 SE 5 6 - - 0.0 - - - - - - -

Other Formats:

Comma delimited format used in spreadsheet applications
http://www.bom.gov.au/fwo/IDN60701/IDN60701.95749.axf

JavaScript Object Notation format (JSON) in row-major order
http://www.bom.gov.au/fwo/IDN60701/IDN60701.95749.json